sensor_id;sensor_type;location;lat;lon;timestamp;pressure;altitude;pressure_sealevel;temperature;humidity
10718;BME280;13513;42.700;23.124;2023-04-25T00:01:02;92135.06;;;10.19;100.00
10718;BME280;13513;42.700;23.124;2023-04-25T00:03:36;92144.30;;;10.11;100.00
10718;BME280;13513;42.700;23.124;2023-04-25T00:06:11;92144.77;;;9.98;100.00
10718;BME280;13513;42.700;23.124;2023-04-25T00:08:44;92137.65;;;9.96;100.00
10718;BME280;13513;42.700;23.124;2023-04-25T00:11:15;92136.84;;;9.93;100.00
10718;BME280;13513;42.700;23.124;2023-04-25T00:13:45;92143.19;;;9.92;100.00
10718;BME280;13513;42.700;23.124;2023-04-25T00:16:16;92148.72;;;9.93;100.00
10718;BME280;13513;42.700;23.124;2023-04-25T00:18:47;92141.32;;;9.90;100.00
10718;BME280;13513;42.700;23.124;2023-04-25T00:21:19;92152.42;;;9.92;100.00
10718;BME280;13513;42.700;23.124;2023-04-25T00:23:50;92148.72;;;9.93;100.00
10718;BME280;13513;42.700;23.124;2023-04-25T00:26:21;92146.89;;;9.96;100.00
10718;BME280;13513;42.700;23.124;2023-04-25T00:28:52;92151.91;;;9.98;100.00
10718;BME280;13513;42.700;23.124;2023-04-25T00:31:23;92140.80;;;9.96;100.00
10718;BME280;13513;42.700;23.124;2023-04-25T00:33:53;92137.39;;;9.95;100.00
10718;BME280;13513;42.700;23.124;2023-04-25T00:36:23;92136.33;;;9.94;100.00
10718;BME280;13513;42.700;23.124;2023-04-25T00:38:55;92137.39;;;9.98;100.00
10718;BME280;13513;42.700;23.124;2023-04-25T00:41:26;92141.61;;;10.01;100.00
10718;BME280;13513;42.700;23.124;2023-04-25T00:43:58;92137.13;;;10.04;100.00
10718;BME280;13513;42.700;23.124;2023-04-25T00:46:30;92134.27;;;10.11;100.00
10718;BME280;13513;42.700;23.124;2023-04-25T00:49:02;92134.27;;;10.06;100.00
10718;BME280;13513;42.700;23.124;2023-04-25T00:51:34;92132.69;;;10.07;100.00
10718;BME280;13513;42.700;23.124;2023-04-25T00:54:05;92125.27;;;10.02;100.00
10718;BME280;13513;42.700;23.124;2023-04-25T00:56:38;92123.94;;;10.04;100.00
10718;BME280;13513;42.700;23.124;2023-04-25T00:59:11;92120.27;;;10.05;100.00
10718;BME280;13513;42.700;23.124;2023-04-25T01:01:43;92123.19;;;10.14;100.00
10718;BME280;13513;42.700;23.124;2023-04-25T01:04:14;92121.30;;;9.97;100.00
10718;BME280;13513;42.700;23.124;2023-04-25T01:06:45;92121.56;;;10.03;100.00
10718;BME280;13513;42.700;23.124;2023-04-25T01:09:16;92117.86;;;10.01;100.00
10718;BME280;13513;42.700;23.124;2023-04-25T01:11:45;92121.07;;;10.08;100.00
10718;BME280;13513;42.700;23.124;2023-04-25T01:14:17;92116.53;;;10.04;100.00
10718;BME280;13513;42.700;23.124;2023-04-25T01:16:49;92117.05;;;9.98;100.00
10718;BME280;13513;42.700;23.124;2023-04-25T01:19:20;92118.38;;;9.88;100.00
10718;BME280;13513;42.700;23.124;2023-04-25T01:21:51;92108.88;;;9.95;100.00
10718;BME280;13513;42.700;23.124;2023-04-25T01:24:23;92116.28;;;9.93;100.00
10718;BME280;13513;42.700;23.124;2023-04-25T01:26:55;92110.20;;;9.92;100.00
10718;BME280;13513;42.700;23.124;2023-04-25T01:29:27;92113.91;;;9.94;100.00
10718;BME280;13513;42.700;23.124;2023-04-25T01:31:59;92113.10;;;9.88;100.00
10718;BME280;13513;42.700;23.124;2023-04-25T01:34:29;92113.36;;;9.87;100.00
10718;BME280;13513;42.700;23.124;2023-04-25T01:37:01;92107.83;;;9.91;100.00
10718;BME280;13513;42.700;23.124;2023-04-25T01:39:31;92107.02;;;9.90;100.00
10718;BME280;13513;42.700;23.124;2023-04-25T01:42:01;92115.48;;;9.97;100.00
10718;BME280;13513;42.700;23.124;2023-04-25T01:44:32;92111.27;;;9.99;100.00
10718;BME280;13513;42.700;23.124;2023-04-25T01:47:02;92111.58;;;10.10;100.00
10718;BME280;13513;42.700;23.124;2023-04-25T01:49:32;92109.99;;;10.14;100.00
10718;BME280;13513;42.700;23.124;2023-04-25T01:52:04;92107.88;;;10.13;100.00
10718;BME280;13513;42.700;23.124;2023-04-25T01:54:34;92107.09;;;10.10;100.00
10718;BME280;13513;42.700;23.124;2023-04-25T01:57:05;92100.19;;;9.99;100.00
10718;BME280;13513;42.700;23.124;2023-04-25T01:59:36;92099.67;;;10.02;100.00
10718;BME280;13513;42.700;23.124;2023-04-25T02:02:07;92095.48;;;10.11;100.00
10718;BME280;13513;42.700;23.124;2023-04-25T02:04:38;92096.80;;;10.16;100.00
10718;BME280;13513;42.700;23.124;2023-04-25T02:07:09;92093.09;;;10.12;100.00
10718;BME280;13513;42.700;23.124;2023-04-25T02:09:40;92086.50;;;10.10;100.00
10718;BME280;13513;42.700;23.124;2023-04-25T02:12:11;92084.39;;;10.19;100.00
10718;BME280;13513;42.700;23.124;2023-04-25T02:14:42;92084.13;;;10.23;100.00
10718;BME280;13513;42.700;23.124;2023-04-25T02:17:13;92086.77;;;10.23;100.00
10718;BME280;13513;42.700;23.124;2023-04-25T02:19:44;92087.04;;;10.32;100.00
10718;BME280;13513;42.700;23.124;2023-04-25T02:22:14;92082.80;;;10.28;100.00
10718;BME280;13513;42.700;23.124;2023-04-25T02:24:46;92079.91;;;10.25;100.00
10718;BME280;13513;42.700;23.124;2023-04-25T02:27:16;92063.80;;;10.29;100.00
10718;BME280;13513;42.700;23.124;2023-04-25T02:29:47;92064.33;;;10.26;100.00
10718;BME280;13513;42.700;23.124;2023-04-25T02:32:18;92055.89;;;10.24;100.00
10718;BME280;13513;42.700;23.124;2023-04-25T02:34:49;92056.95;;;10.28;100.00
10718;BME280;13513;42.700;23.124;2023-04-25T02:37:20;92050.36;;;10.25;100.00
10718;BME280;13513;42.700;23.124;2023-04-25T02:39:51;92043.22;;;10.23;100.00
10718;BME280;13513;42.700;23.124;2023-04-25T02:42:23;92046.38;;;10.20;100.00
10718;BME280;13513;42.700;23.124;2023-04-25T02:44:54;92049.82;;;10.21;100.00
10718;BME280;13513;42.700;23.124;2023-04-25T02:47:25;92053.77;;;10.26;100.00
10718;BME280;13513;42.700;23.124;2023-04-25T02:49:58;92049.55;;;10.25;100.00
10718;BME280;13513;42.700;23.124;2023-04-25T02:52:32;92053.77;;;10.23;100.00
10718;BME280;13513;42.700;23.124;2023-04-25T02:55:12;92048.50;;;10.18;100.00
10718;BME280;13513;42.700;23.124;2023-04-25T02:57:43;92044.27;;;10.25;100.00
10718;BME280;13513;42.700;23.124;2023-04-25T03:00:14;92045.33;;;10.29;100.00
10718;BME280;13513;42.700;23.124;2023-04-25T03:02:45;92050.86;;;10.30;100.00
10718;BME280;13513;42.700;23.124;2023-04-25T03:05:16;92051.38;;;10.37;100.00
10718;BME280;13513;42.700;23.124;2023-04-25T03:07:48;92047.68;;;10.38;100.00
10718;BME280;13513;42.700;23.124;2023-04-25T03:10:19;92048.72;;;10.44;100.00
10718;BME280;13513;42.700;23.124;2023-04-25T03:12:49;92048.98;;;10.50;100.00
10718;BME280;13513;42.700;23.124;2023-04-25T03:15:20;92043.72;;;10.48;100.00
10718;BME280;13513;42.700;23.124;2023-04-25T03:17:52;92054.00;;;10.44;100.00
10718;BME280;13513;42.700;23.124;2023-04-25T03:20:22;92046.89;;;10.42;100.00
10718;BME280;13513;42.700;23.124;2023-04-25T03:22:53;92049.54;;;10.40;100.00
10718;BME280;13513;42.700;23.124;2023-04-25T03:25:22;92043.98;;;10.46;100.00
10718;BME280;13513;42.700;23.124;2023-04-25T03:27:53;92049.26;;;10.56;100.00
10718;BME280;13513;42.700;23.124;2023-04-25T03:30:24;92042.92;;;10.55;100.00
10718;BME280;13513;42.700;23.124;2023-04-25T03:32:55;92042.89;;;10.62;100.00
10718;BME280;13513;42.700;23.124;2023-04-25T03:35:26;92031.00;;;10.62;100.00
10718;BME280;13513;42.700;23.124;2023-04-25T03:37:57;92029.94;;;10.71;100.00
10718;BME280;13513;42.700;23.124;2023-04-25T03:40:28;92032.32;;;10.70;100.00
10718;BME280;13513;42.700;23.124;2023-04-25T03:42:59;92032.05;;;10.74;100.00
10718;BME280;13513;42.700;23.124;2023-04-25T03:45:30;92030.70;;;10.79;100.00
10718;BME280;13513;42.700;23.124;2023-04-25T03:48:00;92039.91;;;10.89;100.00
10718;BME280;13513;42.700;23.124;2023-04-25T03:50:30;92038.86;;;10.85;100.00
10718;BME280;13513;42.700;23.124;2023-04-25T03:53:01;92041.47;;;10.97;100.00
10718;BME280;13513;42.700;23.124;2023-04-25T03:55:32;92039.08;;;11.03;100.00
10718;BME280;13513;42.700;23.124;2023-04-25T03:58:05;92047.50;;;11.13;100.00
10718;BME280;13513;42.700;23.124;2023-04-25T04:00:37;92047.73;;;11.19;100.00
10718;BME280;13513;42.700;23.124;2023-04-25T04:03:07;92047.95;;;11.30;100.00
10718;BME280;13513;42.700;23.124;2023-04-25T04:05:38;92048.77;;;11.28;100.00
10718;BME280;13513;42.700;23.124;2023-04-25T04:08:09;92049.02;;;11.29;100.00
10718;BME280;13513;42.700;23.124;2023-04-25T04:10:40;92041.59;;;11.31;100.00
10718;BME280;13513;42.700;23.124;2023-04-25T04:13:11;92046.91;;;11.26;100.00
10718;BME280;13513;42.700;23.124;2023-04-25T04:15:41;92046.15;;;11.18;100.00
10718;BME280;13513;42.700;23.124;2023-04-25T04:18:12;92048.01;;;11.15;100.00
10718;BME280;13513;42.700;23.124;2023-04-25T04:20:43;92049.09;;;11.11;100.00
10718;BME280;13513;42.700;23.124;2023-04-25T04:23:14;92046.95;;;11.18;100.00
10718;BME280;13513;42.700;23.124;2023-04-25T04:25:47;92040.61;;;11.17;100.00
10718;BME280;13513;42.700;23.124;2023-04-25T04:28:20;92034.00;;;11.17;100.00
10718;BME280;13513;42.700;23.124;2023-04-25T04:30:51;92050.09;;;11.23;100.00
10718;BME280;13513;42.700;23.124;2023-04-25T04:33:22;92042.97;;;11.21;100.00
10718;BME280;13513;42.700;23.124;2023-04-25T04:35:53;92038.75;;;11.20;100.00
10718;BME280;13513;42.700;23.124;2023-04-25T04:38:24;92048.28;;;11.11;100.00
10718;BME280;13513;42.700;23.124;2023-04-25T04:40:55;92048.27;;;11.13;100.00
10718;BME280;13513;42.700;23.124;2023-04-25T04:43:26;92044.05;;;11.15;100.00
10718;BME280;13513;42.700;23.124;2023-04-25T04:45:57;92044.06;;;11.12;100.00
10718;BME280;13513;42.700;23.124;2023-04-25T04:48:28;92040.39;;;11.06;100.00
10718;BME280;13513;42.700;23.124;2023-04-25T04:50:59;92039.88;;;10.99;100.00
10718;BME280;13513;42.700;23.124;2023-04-25T04:53:30;92041.45;;;11.00;100.00
10718;BME280;13513;42.700;23.124;2023-04-25T04:56:02;92034.63;;;10.91;100.00
10718;BME280;13513;42.700;23.124;2023-04-25T04:58:31;92038.86;;;10.85;100.00
10718;BME280;13513;42.700;23.124;2023-04-25T05:01:02;92038.31;;;10.90;100.00
10718;BME280;13513;42.700;23.124;2023-04-25T05:03:33;92053.91;;;10.89;100.00
10718;BME280;13513;42.700;23.124;2023-04-25T05:06:04;92060.22;;;10.98;100.00
10718;BME280;13513;42.700;23.124;2023-04-25T05:08:35;92063.64;;;11.04;100.00
10718;BME280;13513;42.700;23.124;2023-04-25T05:11:07;92067.88;;;11.00;100.00
10718;BME280;13513;42.700;23.124;2023-04-25T05:13:37;92072.08;;;11.11;100.00
10718;BME280;13513;42.700;23.124;2023-04-25T05:16:07;92076.03;;;11.18;100.00
10718;BME280;13513;42.700;23.124;2023-04-25T05:18:39;92072.30;;;11.29;100.00
10718;BME280;13513;42.700;23.124;2023-04-25T05:21:12;92077.99;;;11.51;100.00
10718;BME280;13513;42.700;23.124;2023-04-25T05:23:43;92073.44;;;11.69;100.00
10718;BME280;13513;42.700;23.124;2023-04-25T05:26:14;92077.38;;;11.74;100.00
10718;BME280;13513;42.700;23.124;2023-04-25T05:28:44;92070.78;;;11.72;100.00
10718;BME280;13513;42.700;23.124;2023-04-25T05:31:15;92069.22;;;11.68;100.00
10718;BME280;13513;42.700;23.124;2023-04-25T05:33:45;92068.95;;;11.65;100.00
10718;BME280;13513;42.700;23.124;2023-04-25T05:36:15;92070.15;;;11.90;100.00
10718;BME280;13513;42.700;23.124;2023-04-25T05:38:46;92070.03;;;12.07;100.00
10718;BME280;13513;42.700;23.124;2023-04-25T05:41:17;92071.17;;;12.30;100.00
10718;BME280;13513;42.700;23.124;2023-04-25T05:43:48;92070.55;;;12.41;100.00
10718;BME280;13513;42.700;23.124;2023-04-25T05:46:19;92071.41;;;12.36;100.00
10718;BME280;13513;42.700;23.124;2023-04-25T05:48:50;92069.97;;;12.46;100.00
10718;BME280;13513;42.700;23.124;2023-04-25T05:51:21;92072.52;;;12.28;100.00
10718;BME280;13513;42.700;23.124;2023-04-25T05:53:51;92064.50;;;12.38;100.00
10718;BME280;13513;42.700;23.124;2023-04-25T05:56:23;92072.45;;;12.38;100.00
10718;BME280;13513;42.700;23.124;2023-04-25T05:58:53;92060.32;;;12.60;100.00
10718;BME280;13513;42.700;23.124;2023-04-25T06:01:23;92061.82;;;12.97;100.00
10718;BME280;13513;42.700;23.124;2023-04-25T06:03:54;92055.59;;;13.12;100.00
10718;BME280;13513;42.700;23.124;2023-04-25T06:06:25;92050.17;;;13.43;100.00
10718;BME280;13513;42.700;23.124;2023-04-25T06:08:56;92063.69;;;13.44;100.00
10718;BME280;13513;42.700;23.124;2023-04-25T06:11:27;92054.46;;;13.81;100.00
10718;BME280;13513;42.700;23.124;2023-04-25T06:13:57;92059.02;;;14.15;100.00
10718;BME280;13513;42.700;23.124;2023-04-25T06:16:29;92066.53;;;13.89;100.00
10718;BME280;13513;42.700;23.124;2023-04-25T06:18:59;92073.80;;;13.63;100.00
10718;BME280;13513;42.700;23.124;2023-04-25T06:21:30;92066.63;;;13.42;100.00
10718;BME280;13513;42.700;23.124;2023-04-25T06:24:01;92070.57;;;13.45;100.00
10718;BME280;13513;42.700;23.124;2023-04-25T06:26:32;92069.97;;;13.50;100.00
10718;BME280;13513;42.700;23.124;2023-04-25T06:29:02;92069.55;;;14.22;100.00
10718;BME280;13513;42.700;23.124;2023-04-25T06:31:32;92073.31;;;14.69;100.00
10718;BME280;13513;42.700;23.124;2023-04-25T06:34:03;92075.11;;;14.58;100.00
10718;BME280;13513;42.700;23.124;2023-04-25T06:36:34;92077.72;;;14.76;100.00
10718;BME280;13513;42.700;23.124;2023-04-25T06:39:06;92073.16;;;14.79;100.00
10718;BME280;13513;42.700;23.124;2023-04-25T06:41:37;92076.03;;;15.55;100.00
10718;BME280;13513;42.700;23.124;2023-04-25T06:44:08;92076.13;;;16.38;90.09
10718;BME280;13513;42.700;23.124;2023-04-25T06:46:39;92081.19;;;16.72;86.86
10718;BME280;13513;42.700;23.124;2023-04-25T06:49:10;92076.14;;;16.93;79.61
10718;BME280;13513;42.700;23.124;2023-04-25T06:51:41;92074.48;;;16.64;81.93
10718;BME280;13513;42.700;23.124;2023-04-25T06:54:12;92072.59;;;15.93;87.32
10718;BME280;13513;42.700;23.124;2023-04-25T06:56:42;92083.08;;;15.33;87.82
10718;BME280;13513;42.700;23.124;2023-04-25T06:59:14;92081.26;;;15.17;92.77
10718;BME280;13513;42.700;23.124;2023-04-25T07:01:47;92081.42;;;15.07;92.92
10718;BME280;13513;42.700;23.124;2023-04-25T07:04:18;92079.24;;;14.80;95.17
10718;BME280;13513;42.700;23.124;2023-04-25T07:06:48;92079.64;;;15.03;93.41
10718;BME280;13513;42.700;23.124;2023-04-25T07:09:19;92086.17;;;15.67;90.79
10718;BME280;13513;42.700;23.124;2023-04-25T07:11:56;92080.89;;;16.38;84.42
10718;BME280;13513;42.700;23.124;2023-04-25T07:14:27;92088.83;;;16.87;79.61
10718;BME280;13513;42.700;23.124;2023-04-25T07:16:58;92090.42;;;17.30;76.20
10718;BME280;13513;42.700;23.124;2023-04-25T07:19:29;92088.78;;;17.31;72.91
10718;BME280;13513;42.700;23.124;2023-04-25T07:22:00;92081.83;;;18.36;69.00
10718;BME280;13513;42.700;23.124;2023-04-25T07:24:31;92080.45;;;17.83;68.68
10718;BME280;13513;42.700;23.124;2023-04-25T07:27:02;92074.14;;;19.17;67.38
10718;BME280;13513;42.700;23.124;2023-04-25T07:29:33;92071.86;;;19.91;56.86
10718;BME280;13513;42.700;23.124;2023-04-25T07:32:04;92071.45;;;20.24;55.16
10718;BME280;13513;42.700;23.124;2023-04-25T07:34:35;92071.12;;;20.26;52.84
10718;BME280;13513;42.700;23.124;2023-04-25T07:37:06;92067.84;;;20.06;52.30
10718;BME280;13513;42.700;23.124;2023-04-25T07:39:39;92068.25;;;20.02;52.21
10718;BME280;13513;42.700;23.124;2023-04-25T07:42:10;92066.87;;;20.60;51.72
10718;BME280;13513;42.700;23.124;2023-04-25T07:44:41;92071.28;;;20.15;56.21
10718;BME280;13513;42.700;23.124;2023-04-25T07:47:12;92071.59;;;18.81;57.22
10718;BME280;13513;42.700;23.124;2023-04-25T07:49:42;92067.30;;;19.83;55.24
10718;BME280;13513;42.700;23.124;2023-04-25T07:52:12;92064.06;;;19.54;50.27
10718;BME280;13513;42.700;23.124;2023-04-25T07:54:42;92062.67;;;19.40;51.92
10718;BME280;13513;42.700;23.124;2023-04-25T07:57:13;92059.95;;;19.17;54.11
10718;BME280;13513;42.700;23.124;2023-04-25T07:59:44;92058.49;;;19.83;51.79
10718;BME280;13513;42.700;23.124;2023-04-25T08:02:15;92063.28;;;19.83;51.45
10718;BME280;13513;42.700;23.124;2023-04-25T08:04:46;92065.98;;;19.98;51.74
10718;BME280;13513;42.700;23.124;2023-04-25T08:07:20;92060.27;;;20.78;48.52
10718;BME280;13513;42.700;23.124;2023-04-25T08:09:51;92059.73;;;21.11;47.98
10718;BME280;13513;42.700;23.124;2023-04-25T08:12:21;92069.56;;;20.86;46.86
10718;BME280;13513;42.700;23.124;2023-04-25T08:14:51;92065.82;;;20.32;48.81
10718;BME280;13513;42.700;23.124;2023-04-25T08:17:22;92078.45;;;18.59;53.64
10718;BME280;13513;42.700;23.124;2023-04-25T08:19:52;92068.49;;;18.25;61.61
10718;BME280;13513;42.700;23.124;2023-04-25T08:22:22;92064.39;;;18.11;64.92
10718;BME280;13513;42.700;23.124;2023-04-25T08:24:52;92063.77;;;18.14;63.11
10718;BME280;13513;42.700;23.124;2023-04-25T08:27:24;92071.02;;;19.07;58.04
10718;BME280;13513;42.700;23.124;2023-04-25T08:29:55;92061.45;;;19.90;57.67
10718;BME280;13513;42.700;23.124;2023-04-25T08:32:26;92058.82;;;20.86;52.19
10718;BME280;13513;42.700;23.124;2023-04-25T08:34:57;92043.42;;;22.50;48.82
10718;BME280;13513;42.700;23.124;2023-04-25T08:37:28;92048.14;;;23.21;45.74
10718;BME280;13513;42.700;23.124;2023-04-25T08:39:58;92051.80;;;23.00;44.18
10718;BME280;13513;42.700;23.124;2023-04-25T08:42:28;92041.97;;;23.14;44.95
10718;BME280;13513;42.700;23.124;2023-04-25T08:45:00;92042.41;;;23.44;44.41
10718;BME280;13513;42.700;23.124;2023-04-25T08:47:33;92050.30;;;23.58;42.84
10718;BME280;13513;42.700;23.124;2023-04-25T08:50:05;92050.45;;;23.00;42.19
10718;BME280;13513;42.700;23.124;2023-04-25T08:52:43;92052.64;;;22.07;44.82
10718;BME280;13513;42.700;23.124;2023-04-25T08:55:14;92054.31;;;22.48;42.56
10718;BME280;13513;42.700;23.124;2023-04-25T08:57:46;92052.02;;;21.60;44.73
10718;BME280;13513;42.700;23.124;2023-04-25T09:00:17;92055.38;;;20.45;47.56
10718;BME280;13513;42.700;23.124;2023-04-25T09:02:49;92055.05;;;20.46;51.34
10718;BME280;13513;42.700;23.124;2023-04-25T09:05:20;92063.70;;;19.79;52.24
10718;BME280;13513;42.700;23.124;2023-04-25T09:07:52;92058.34;;;19.10;50.24
10718;BME280;13513;42.700;23.124;2023-04-25T09:10:23;92043.30;;;19.03;58.67
10718;BME280;13513;42.700;23.124;2023-04-25T09:13:13;92046.14;;;19.61;57.88
10718;BME280;13513;42.700;23.124;2023-04-25T09:15:54;92040.68;;;19.93;51.09
10718;BME280;13513;42.700;23.124;2023-04-25T09:18:30;92032.31;;;19.94;49.51
10718;BME280;13513;42.700;23.124;2023-04-25T09:21:08;92038.38;;;19.68;46.25
10718;BME280;13513;42.700;23.124;2023-04-25T09:23:48;92042.58;;;19.40;46.82
10718;BME280;13513;42.700;23.124;2023-04-25T09:26:19;92041.52;;;19.32;45.94
10718;BME280;13513;42.700;23.124;2023-04-25T09:28:49;92047.77;;;19.05;45.39
10718;BME280;13513;42.700;23.124;2023-04-25T09:31:23;92047.91;;;18.68;48.87
10718;BME280;13513;42.700;23.124;2023-04-25T09:34:00;92039.63;;;20.29;47.30
10718;BME280;13513;42.700;23.124;2023-04-25T09:36:31;92040.27;;;21.20;45.35
10718;BME280;13513;42.700;23.124;2023-04-25T09:39:03;92032.16;;;21.34;43.09
10718;BME280;13513;42.700;23.124;2023-04-25T09:41:37;92034.54;;;21.09;45.39
10718;BME280;13513;42.700;23.124;2023-04-25T09:44:06;92047.83;;;20.94;42.00
10718;BME280;13513;42.700;23.124;2023-04-25T09:46:36;92051.47;;;20.69;42.81
10718;BME280;13513;42.700;23.124;2023-04-25T09:49:09;92048.12;;;20.45;44.18
10718;BME280;13513;42.700;23.124;2023-04-25T09:51:39;92041.61;;;19.68;44.77
10718;BME280;13513;42.700;23.124;2023-04-25T09:54:10;92041.80;;;18.99;45.24
10718;BME280;13513;42.700;23.124;2023-04-25T09:56:42;92040.09;;;18.18;47.90
10718;BME280;13513;42.700;23.124;2023-04-25T09:59:18;92047.66;;;17.88;49.74
10718;BME280;13513;42.700;23.124;2023-04-25T10:01:49;92049.84;;;17.50;49.11
10718;BME280;13513;42.700;23.124;2023-04-25T10:04:22;92045.13;;;18.20;55.50
10718;BME280;13513;42.700;23.124;2023-04-25T10:06:53;92051.98;;;18.91;50.95
10718;BME280;13513;42.700;23.124;2023-04-25T10:09:25;92052.27;;;19.61;45.96
10718;BME280;13513;42.700;23.124;2023-04-25T10:11:59;92041.70;;;19.65;48.42
10718;BME280;13513;42.700;23.124;2023-04-25T10:14:31;92046.97;;;19.30;46.14
10718;BME280;13513;42.700;23.124;2023-04-25T10:17:02;92054.64;;;19.00;43.26
10718;BME280;13513;42.700;23.124;2023-04-25T10:19:35;92051.44;;;18.83;47.07
10718;BME280;13513;42.700;23.124;2023-04-25T10:24:58;92052.81;;;18.13;45.87
10718;BME280;13513;42.700;23.124;2023-04-25T10:27:29;92050.96;;;18.22;47.35
10718;BME280;13513;42.700;23.124;2023-04-25T10:30:14;92052.64;;;18.37;47.64
10718;BME280;13513;42.700;23.124;2023-04-25T10:32:41;92046.19;;;18.47;49.29
10718;BME280;13513;42.700;23.124;2023-04-25T10:35:19;92040.59;;;18.71;51.60
10718;BME280;13513;42.700;23.124;2023-04-25T10:37:57;92035.94;;;19.14;50.14
10718;BME280;13513;42.700;23.124;2023-04-25T10:40:27;92033.47;;;19.55;49.70
10718;BME280;13513;42.700;23.124;2023-04-25T10:45:52;92026.69;;;20.16;48.08
10718;BME280;13513;42.700;23.124;2023-04-25T10:48:32;92020.30;;;20.15;47.02
10718;BME280;13513;42.700;23.124;2023-04-25T10:51:17;92018.64;;;20.16;46.62
10718;BME280;13513;42.700;23.124;2023-04-25T10:53:47;92005.56;;;20.35;50.44
10718;BME280;13513;42.700;23.124;2023-04-25T10:56:22;92010.71;;;20.55;51.28
10718;BME280;13513;42.700;23.124;2023-04-25T10:59:15;92010.07;;;20.64;47.07
10718;BME280;13513;42.700;23.124;2023-04-25T11:01:26;92010.98;;;20.74;45.39
10718;BME280;13513;42.700;23.124;2023-04-25T11:04:00;92025.42;;;20.75;46.27
10718;BME280;13513;42.700;23.124;2023-04-25T11:06:34;92009.58;;;20.82;42.31
10718;BME280;13513;42.700;23.124;2023-04-25T11:09:03;92018.13;;;20.64;44.38
10718;BME280;13513;42.700;23.124;2023-04-25T11:11:36;92018.34;;;20.09;45.29
10718;BME280;13513;42.700;23.124;2023-04-25T11:14:06;92013.80;;;19.28;47.61
10718;BME280;13513;42.700;23.124;2023-04-25T11:16:35;92018.83;;;18.90;49.10
10718;BME280;13513;42.700;23.124;2023-04-25T11:19:06;92028.25;;;18.39;50.08
10718;BME280;13513;42.700;23.124;2023-04-25T11:21:37;92032.27;;;17.07;52.16
10718;BME280;13513;42.700;23.124;2023-04-25T11:24:08;92042.20;;;16.52;52.79
10718;BME280;13513;42.700;23.124;2023-04-25T11:26:41;92033.19;;;15.79;57.46
10718;BME280;13513;42.700;23.124;2023-04-25T11:29:10;92034.23;;;15.26;68.57
10718;BME280;13513;42.700;23.124;2023-04-25T11:31:44;92034.20;;;14.56;82.76
10718;BME280;13513;42.700;23.124;2023-04-25T11:34:18;92034.45;;;14.04;89.21
10718;BME280;13513;42.700;23.124;2023-04-25T11:36:49;92015.52;;;14.11;91.67
10718;BME280;13513;42.700;23.124;2023-04-25T11:39:21;91999.41;;;14.53;93.31
10718;BME280;13513;42.700;23.124;2023-04-25T11:41:52;91997.67;;;14.91;96.10
10718;BME280;13513;42.700;23.124;2023-04-25T11:44:23;92001.03;;;15.24;91.02
10718;BME280;13513;42.700;23.124;2023-04-25T11:46:54;92000.80;;;15.34;83.23
10718;BME280;13513;42.700;23.124;2023-04-25T11:49:30;92006.08;;;15.77;80.64
10718;BME280;13513;42.700;23.124;2023-04-25T11:51:57;92007.03;;;16.28;83.17
10718;BME280;13513;42.700;23.124;2023-04-25T11:54:28;91999.16;;;17.08;85.69
10718;BME280;13513;42.700;23.124;2023-04-25T11:57:00;91996.73;;;17.85;79.43
10718;BME280;13513;42.700;23.124;2023-04-25T11:59:33;91994.78;;;18.05;70.23
10718;BME280;13513;42.700;23.124;2023-04-25T12:02:05;91991.30;;;17.87;70.10
10718;BME280;13513;42.700;23.124;2023-04-25T12:04:36;91990.25;;;18.14;68.07
10718;BME280;13513;42.700;23.124;2023-04-25T12:07:09;91987.64;;;18.62;65.43
10718;BME280;13513;42.700;23.124;2023-04-25T12:09:40;91988.37;;;19.11;67.15
10718;BME280;13513;42.700;23.124;2023-04-25T12:12:11;91982.08;;;19.53;62.14
10718;BME280;13513;42.700;23.124;2023-04-25T12:14:47;91985.44;;;19.19;55.45
10718;BME280;13513;42.700;23.124;2023-04-25T12:17:14;92001.02;;;18.62;47.62
10718;BME280;13513;42.700;23.124;2023-04-25T12:19:46;92011.05;;;18.06;52.52
10718;BME280;13513;42.700;23.124;2023-04-25T12:22:21;92024.25;;;17.94;57.23
10718;BME280;13513;42.700;23.124;2023-04-25T12:24:54;92024.31;;;17.46;60.86
10718;BME280;13513;42.700;23.124;2023-04-25T12:27:30;92031.52;;;16.85;64.24
10718;BME280;13513;42.700;23.124;2023-04-25T12:30:01;92028.91;;;16.16;69.09
10718;BME280;13513;42.700;23.124;2023-04-25T12:32:32;92038.34;;;16.22;69.61
10718;BME280;13513;42.700;23.124;2023-04-25T12:35:04;92039.92;;;16.12;72.61
10718;BME280;13513;42.700;23.124;2023-04-25T12:37:37;92039.31;;;16.04;74.36
10718;BME280;13513;42.700;23.124;2023-04-25T12:40:09;92035.02;;;15.81;75.49
10718;BME280;13513;42.700;23.124;2023-04-25T12:42:40;92047.50;;;15.69;77.20
10718;BME280;13513;42.700;23.124;2023-04-25T12:45:11;92039.80;;;15.27;84.02
10718;BME280;13513;42.700;23.124;2023-04-25T12:47:42;92056.83;;;14.70;87.35
10718;BME280;13513;42.700;23.124;2023-04-25T12:50:13;92058.39;;;14.23;91.40
10718;BME280;13513;42.700;23.124;2023-04-25T12:52:43;92060.38;;;13.75;99.46
10718;BME280;13513;42.700;23.124;2023-04-25T12:55:14;92059.36;;;13.50;100.00
10718;BME280;13513;42.700;23.124;2023-04-25T12:57:45;92056.57;;;13.39;100.00
10718;BME280;13513;42.700;23.124;2023-04-25T13:00:15;92052.27;;;13.43;100.00
10718;BME280;13513;42.700;23.124;2023-04-25T13:02:45;92053.42;;;13.37;100.00
10718;BME280;13513;42.700;23.124;2023-04-25T13:05:16;92052.59;;;13.42;100.00
10718;BME280;13513;42.700;23.124;2023-04-25T13:07:47;92057.79;;;13.28;100.00
10718;BME280;13513;42.700;23.124;2023-04-25T13:10:19;92058.66;;;13.21;100.00
10718;BME280;13513;42.700;23.124;2023-04-25T13:12:50;92060.95;;;13.04;100.00